createdAt,value
2022-11-07T00:00:07.647Z,8.90
2022-11-07T00:00:18.447Z,8.91
2022-11-07T00:00:29.238Z,8.91
2022-11-07T00:00:42.925Z,8.91
2022-11-07T00:00:57.576Z,8.90
2022-11-07T00:01:10.795Z,8.91
2022-11-07T00:01:22.602Z,8.91
2022-11-07T00:01:34.396Z,8.90
2022-11-07T00:01:46.320Z,8.91
2022-11-07T00:01:59.289Z,8.90
2022-11-07T00:02:12.753Z,8.88
2022-11-07T00:02:23.633Z,8.90
2022-11-07T00:02:36.669Z,8.90
2022-11-07T00:02:49.131Z,8.90
2022-11-07T00:02:59.981Z,8.88
2022-11-07T00:03:10.845Z,8.88
2022-11-07T00:03:22.697Z,8.90
2022-11-07T00:03:33.505Z,8.88
2022-11-07T00:03:45.765Z,8.90
2022-11-07T00:03:56.567Z,8.90
2022-11-07T00:04:07.336Z,8.88
2022-11-07T00:04:19.794Z,8.87
2022-11-07T00:04:30.644Z,8.88
2022-11-07T00:04:41.417Z,8.90
2022-11-07T00:04:52.154Z,8.90
2022-11-07T00:05:02.896Z,8.91
2022-11-07T00:05:13.694Z,8.90
2022-11-07T00:05:24.445Z,8.90
2022-11-07T00:05:37.665Z,8.91
2022-11-07T00:05:49.405Z,8.91
2022-11-07T00:06:02.200Z,8.90
2022-11-07T00:06:13.925Z,8.91
2022-11-07T00:06:26.145Z,8.91
2022-11-07T00:06:38.347Z,8.90
2022-11-07T00:06:52.086Z,8.91
2022-11-07T00:07:04.048Z,8.91
2022-11-07T00:07:15.767Z,8.90
2022-11-07T00:07:27.496Z,8.90
2022-11-07T00:07:39.955Z,8.91
2022-11-07T00:07:52.404Z,8.90
2022-11-07T00:08:05.560Z,8.91
2022-11-07T00:08:16.435Z,8.90
2022-11-07T00:08:27.227Z,8.90
2022-11-07T00:08:37.986Z,8.90
2022-11-07T00:08:49.726Z,8.91
2022-11-07T00:09:01.696Z,8.90
2022-11-07T00:09:13.907Z,8.90
2022-11-07T00:09:25.651Z,8.90
2022-11-07T00:09:37.356Z,8.90
2022-11-07T00:09:48.128Z,8.90
2022-11-07T00:09:58.915Z,8.88
2022-11-07T00:10:10.631Z,8.90
2022-11-07T00:10:22.546Z,8.91
2022-11-07T00:10:34.267Z,8.90
2022-11-07T00:10:46.045Z,8.90
2022-11-07T00:10:58.525Z,8.88
2022-11-07T00:11:09.259Z,8.90
2022-11-07T00:11:20.036Z,8.90
2022-11-07T00:11:31.737Z,8.91
2022-11-07T00:11:44.436Z,8.90
2022-11-07T00:11:55.197Z,8.88
2022-11-07T00:12:05.968Z,8.88
2022-11-07T00:12:18.198Z,8.90
2022-11-07T00:12:28.979Z,8.90
2022-11-07T00:12:42.211Z,8.88
2022-11-07T00:12:55.415Z,8.90
2022-11-07T00:13:08.569Z,8.90
2022-11-07T00:13:19.327Z,8.90
2022-11-07T00:13:31.047Z,8.90
2022-11-07T00:13:41.816Z,8.90
2022-11-07T00:13:52.660Z,8.90
2022-11-07T00:14:04.387Z,8.90
2022-11-07T00:14:15.152Z,8.90
2022-11-07T00:14:25.920Z,8.88
2022-11-07T00:14:37.613Z,8.90
2022-11-07T00:14:48.368Z,8.88
2022-11-07T00:14:59.128Z,8.88
2022-11-07T00:15:11.605Z,8.90
2022-11-07T00:15:24.149Z,8.90
2022-11-07T00:15:36.588Z,8.88
2022-11-07T00:15:48.368Z,8.87
2022-11-07T00:16:00.604Z,8.87
2022-11-07T00:16:11.368Z,8.88
2022-11-07T00:16:23.348Z,8.87
2022-11-07T00:16:35.589Z,8.88
2022-11-07T00:16:48.049Z,8.88
2022-11-07T00:17:01.271Z,8.87
2022-11-07T00:17:13.747Z,8.87
2022-11-07T00:17:24.535Z,8.87
2022-11-07T00:17:36.985Z,8.87
2022-11-07T00:17:48.728Z,8.87
2022-11-07T00:17:59.532Z,8.87
2022-11-07T00:18:12.048Z,8.87
2022-11-07T00:18:23.752Z,8.86
2022-11-07T00:18:35.470Z,8.87
2022-11-07T00:18:47.200Z,8.86
2022-11-07T00:18:58.921Z,8.86
2022-11-07T00:19:12.169Z,8.86
2022-11-07T00:19:24.619Z,8.84
2022-11-07T00:19:36.867Z,8.86
2022-11-07T00:19:48.589Z,8.86
2022-11-07T00:20:01.039Z,8.84
2022-11-07T00:20:11.797Z,8.84
2022-11-07T00:20:23.540Z,8.84
2022-11-07T00:20:34.289Z,8.84
2022-11-07T00:20:46.491Z,8.84
2022-11-07T00:20:59.326Z,8.84
2022-11-07T00:21:11.789Z,8.84
2022-11-07T00:21:23.539Z,8.86
2022-11-07T00:21:34.310Z,8.83
2022-11-07T00:21:46.739Z,8.83
2022-11-07T00:21:58.442Z,8.83
2022-11-07T00:22:09.217Z,8.81
2022-11-07T00:22:21.448Z,8.81
2022-11-07T00:22:32.200Z,8.83
2022-11-07T00:22:43.930Z,8.83
2022-11-07T00:22:56.187Z,8.81
2022-11-07T00:23:06.958Z,8.81
2022-11-07T00:23:20.199Z,8.83
2022-11-07T00:23:31.699Z,8.81
2022-11-07T00:23:43.930Z,8.83
2022-11-07T00:23:54.689Z,8.83
2022-11-07T00:24:05.439Z,8.81
2022-11-07T00:24:17.869Z,8.83
2022-11-07T00:24:30.321Z,8.83
2022-11-07T00:24:41.138Z,8.83
2022-11-07T00:24:52.860Z,8.83
2022-11-07T00:25:04.603Z,8.83
2022-11-07T00:25:17.232Z,8.83
2022-11-07T00:25:28.954Z,8.83
2022-11-07T00:25:39.780Z,8.81
2022-11-07T00:25:51.980Z,8.81
2022-11-07T00:26:03.735Z,8.81
2022-11-07T00:26:16.177Z,8.83
2022-11-07T00:26:26.984Z,8.81
2022-11-07T00:26:38.701Z,8.83
2022-11-07T00:26:49.568Z,8.81
2022-11-07T00:27:02.149Z,8.81
2022-11-07T00:27:14.021Z,8.81
2022-11-07T00:27:24.907Z,8.81
2022-11-07T00:27:37.385Z,8.79
2022-11-07T00:27:49.841Z,8.78
2022-11-07T00:28:00.621Z,8.78
2022-11-07T00:28:11.402Z,8.78
2022-11-07T00:28:23.120Z,8.78
2022-11-07T00:28:35.571Z,8.78
2022-11-07T00:28:47.331Z,8.78
2022-11-07T00:28:59.571Z,8.78
2022-11-07T00:29:10.342Z,8.78
2022-11-07T00:29:21.100Z,8.78
2022-11-07T00:29:33.552Z,8.76
2022-11-07T00:29:45.291Z,8.78
2022-11-07T00:29:57.520Z,8.78
2022-11-07T00:30:09.982Z,8.76
2022-11-07T00:30:21.711Z,8.76
2022-11-07T00:30:33.431Z,8.75
2022-11-07T00:30:44.206Z,8.76
2022-11-07T00:30:55.020Z,8.78
2022-11-07T00:31:07.246Z,8.76
2022-11-07T00:31:19.231Z,8.76
2022-11-07T00:31:30.222Z,8.76
2022-11-07T00:31:42.763Z,8.75
2022-11-07T00:31:55.212Z,8.75
2022-11-07T00:32:07.701Z,8.76
2022-11-07T00:32:18.442Z,8.75
2022-11-07T00:32:30.134Z,8.75
2022-11-07T00:32:41.863Z,8.73
2022-11-07T00:32:56.339Z,8.75
2022-11-07T00:33:09.933Z,8.75
2022-11-07T00:33:20.712Z,8.75
2022-11-07T00:33:34.013Z,8.75
2022-11-07T00:33:46.961Z,8.75
2022-11-07T00:33:59.445Z,8.73
2022-11-07T00:34:11.186Z,8.73
2022-11-07T00:34:21.972Z,8.75
2022-11-07T00:34:33.683Z,8.73
2022-11-07T00:34:44.444Z,8.73
2022-11-07T00:34:55.242Z,8.75
2022-11-07T00:35:05.981Z,8.73
2022-11-07T00:35:18.842Z,8.73
2022-11-07T00:35:30.602Z,8.75
2022-11-07T00:35:41.342Z,8.72
2022-11-07T00:35:53.823Z,8.75
2022-11-07T00:36:05.533Z,8.72
2022-11-07T00:36:18.033Z,8.73
2022-11-07T00:36:30.529Z,8.72
2022-11-07T00:36:42.992Z,8.72
2022-11-07T00:36:53.793Z,8.72
2022-11-07T00:37:04.545Z,8.71
2022-11-07T00:37:15.322Z,8.72
2022-11-07T00:37:27.793Z,8.71
2022-11-07T00:37:41.015Z,8.72
2022-11-07T00:37:51.803Z,8.71
2022-11-07T00:38:02.564Z,8.71
2022-11-07T00:38:14.255Z,8.71
2022-11-07T00:38:25.984Z,8.71
2022-11-07T00:38:37.714Z,8.71
2022-11-07T00:38:48.503Z,8.72
2022-11-07T00:39:01.456Z,8.72
2022-11-07T00:39:12.240Z,8.72
2022-11-07T00:39:23.963Z,8.71
2022-11-07T00:39:35.705Z,8.72
2022-11-07T00:39:48.144Z,8.73
2022-11-07T00:40:00.593Z,8.73
2022-11-07T00:40:13.045Z,8.73
2022-11-07T00:40:23.848Z,8.73
2022-11-07T00:40:34.616Z,8.75
2022-11-07T00:40:47.054Z,8.73
2022-11-07T00:40:59.522Z,8.73
2022-11-07T00:41:12.205Z,8.75
2022-11-07T00:41:23.936Z,8.75
2022-11-07T00:41:34.751Z,8.73
2022-11-07T00:41:46.944Z,8.75
2022-11-07T00:41:58.685Z,8.73
2022-11-07T00:42:09.584Z,8.75
2022-11-07T00:42:20.364Z,8.75
2022-11-07T00:42:32.114Z,8.73
2022-11-07T00:42:43.814Z,8.75
2022-11-07T00:42:54.565Z,8.75
2022-11-07T00:43:05.294Z,8.75
2022-11-07T00:43:17.744Z,8.76
2022-11-07T00:43:29.464Z,8.76
2022-11-07T00:43:42.604Z,8.76
2022-11-07T00:43:55.534Z,8.76
2022-11-07T00:44:08.340Z,8.75
2022-11-07T00:44:20.845Z,8.76
2022-11-07T00:44:31.584Z,8.76
2022-11-07T00:44:42.374Z,8.76
2022-11-07T00:44:54.125Z,8.78
2022-11-07T00:45:05.865Z,8.76
2022-11-07T00:45:17.595Z,8.76
2022-11-07T00:45:28.375Z,8.78
2022-11-07T00:45:39.176Z,8.76
2022-11-07T00:45:52.398Z,8.76
2022-11-07T00:46:04.847Z,8.78
2022-11-07T00:46:17.325Z,8.76
2022-11-07T00:46:29.776Z,8.78
2022-11-07T00:46:40.576Z,8.78
2022-11-07T00:46:52.835Z,8.78
2022-11-07T00:47:04.805Z,8.78
2022-11-07T00:47:15.565Z,8.76
2022-11-07T00:47:28.786Z,8.78
2022-11-07T00:47:39.533Z,8.78
2022-11-07T00:47:51.265Z,8.78
2022-11-07T00:48:02.988Z,8.78
2022-11-07T00:48:15.195Z,8.76
2022-11-07T00:48:26.923Z,8.78
2022-11-07T00:48:38.674Z,8.78
2022-11-07T00:48:49.468Z,8.78
2022-11-07T00:49:00.286Z,8.78
2022-11-07T00:49:11.057Z,8.78
2022-11-07T00:49:21.826Z,8.76
2022-11-07T00:49:32.587Z,8.78
2022-11-07T00:49:45.039Z,8.78
2022-11-07T00:49:58.785Z,8.78
2022-11-07T00:50:12.008Z,8.78
2022-11-07T00:50:24.717Z,8.78
2022-11-07T00:50:36.935Z,8.76
2022-11-07T00:50:48.628Z,8.76
2022-11-07T00:51:00.907Z,8.76
2022-11-07T00:51:12.866Z,8.76
2022-11-07T00:51:25.126Z,8.76
2022-11-07T00:51:35.956Z,8.76
2022-11-07T00:51:46.707Z,8.76
2022-11-07T00:52:00.408Z,8.76
2022-11-07T00:52:12.647Z,8.75
2022-11-07T00:52:25.888Z,8.76
2022-11-07T00:52:37.656Z,8.78
2022-11-07T00:52:48.467Z,8.76
2022-11-07T00:52:59.288Z,8.76
2022-11-07T00:53:12.021Z,8.75
2022-11-07T00:53:23.009Z,8.76
2022-11-07T00:53:35.444Z,8.75
2022-11-07T00:53:46.199Z,8.76
2022-11-07T00:53:57.028Z,8.75
2022-11-07T00:54:07.806Z,8.75
2022-11-07T00:54:19.778Z,8.75
2022-11-07T00:54:32.276Z,8.76
2022-11-07T00:54:44.306Z,8.75
2022-11-07T00:54:55.119Z,8.75
2022-11-07T00:55:05.867Z,8.75
2022-11-07T00:55:16.610Z,8.75
2022-11-07T00:55:28.318Z,8.75
2022-11-07T00:55:40.058Z,8.73
2022-11-07T00:55:52.527Z,8.73
2022-11-07T00:56:04.262Z,8.75
2022-11-07T00:56:16.497Z,8.73
2022-11-07T00:56:29.009Z,8.73
2022-11-07T00:56:40.738Z,8.75
2022-11-07T00:56:53.957Z,8.73
2022-11-07T00:57:04.727Z,8.73
2022-11-07T00:57:16.945Z,8.73
2022-11-07T00:57:27.677Z,8.75
2022-11-07T00:57:38.457Z,8.73
2022-11-07T00:57:49.209Z,8.75
2022-11-07T00:58:01.164Z,8.75
2022-11-07T00:58:14.085Z,8.75
2022-11-07T00:58:26.437Z,8.75
2022-11-07T00:58:38.170Z,8.76
2022-11-07T00:58:49.889Z,8.75
2022-11-07T00:59:00.671Z,8.75
2022-11-07T00:59:13.369Z,8.76
2022-11-07T00:59:24.118Z,8.75
2022-11-07T00:59:34.881Z,8.76
2022-11-07T00:59:45.639Z,8.76
2022-11-07T00:59:57.368Z,8.75
2022-11-07T01:00:09.651Z,8.75
2022-11-07T01:00:21.447Z,8.75
2022-11-07T01:00:32.218Z,8.75
2022-11-07T01:00:45.949Z,8.75
2022-11-07T01:00:57.787Z,8.75
2022-11-07T01:01:10.947Z,8.75
2022-11-07T01:01:24.509Z,8.75
2022-11-07T01:01:36.505Z,8.75
2022-11-07T01:01:49.204Z,8.75
2022-11-07T01:02:01.808Z,8.75
2022-11-07T01:02:15.136Z,8.75
2022-11-07T01:02:26.879Z,8.75
2022-11-07T01:02:40.224Z,8.75
2022-11-07T01:02:51.115Z,8.76
2022-11-07T01:03:01.946Z,8.76
2022-11-07T01:03:14.756Z,8.75
2022-11-07T01:03:27.113Z,8.76
2022-11-07T01:03:38.959Z,8.75
2022-11-07T01:03:49.705Z,8.75
2022-11-07T01:04:01.971Z,8.76
2022-11-07T01:04:13.722Z,8.75
2022-11-07T01:04:26.671Z,8.75
2022-11-07T01:04:37.493Z,8.75
2022-11-07T01:04:51.764Z,8.76
2022-11-07T01:05:04.750Z,8.76
2022-11-07T01:05:16.534Z,8.75
2022-11-07T01:05:27.290Z,8.73
2022-11-07T01:05:38.020Z,8.75
2022-11-07T01:05:48.801Z,8.73
2022-11-07T01:06:01.302Z,8.73
2022-11-07T01:06:13.280Z,8.73
2022-11-07T01:06:24.019Z,8.75
2022-11-07T01:06:35.740Z,8.73
2022-11-07T01:06:46.645Z,8.75
2022-11-07T01:06:58.851Z,8.73
2022-11-07T01:07:09.630Z,8.73
2022-11-07T01:07:20.409Z,8.73
2022-11-07T01:07:34.143Z,8.73
2022-11-07T01:07:46.570Z,8.73
2022-11-07T01:07:57.411Z,8.75
2022-11-07T01:08:09.875Z,8.73
2022-11-07T01:08:20.612Z,8.73
2022-11-07T01:08:32.340Z,8.73
2022-11-07T01:08:43.118Z,8.73
2022-11-07T01:08:54.854Z,8.73
2022-11-07T01:09:05.590Z,8.73
2022-11-07T01:09:16.360Z,8.73
2022-11-07T01:09:29.300Z,8.73
2022-11-07T01:09:40.073Z,8.75
2022-11-07T01:09:50.866Z,8.75
2022-11-07T01:10:02.561Z,8.73
2022-11-07T01:10:15.028Z,8.76
2022-11-07T01:10:25.767Z,8.76
2022-11-07T01:10:38.259Z,8.75
2022-11-07T01:10:48.982Z,8.75
2022-11-07T01:11:02.192Z,8.76
2022-11-07T01:11:13.943Z,8.76
2022-11-07T01:11:26.453Z,8.76
2022-11-07T01:11:38.962Z,8.78
2022-11-07T01:11:51.245Z,8.76
2022-11-07T01:12:03.483Z,8.76
2022-11-07T01:12:14.270Z,8.76
2022-11-07T01:12:25.036Z,8.76
2022-11-07T01:12:36.823Z,8.76
2022-11-07T01:12:50.041Z,8.76
2022-11-07T01:13:02.513Z,8.78
2022-11-07T01:13:13.584Z,8.76
2022-11-07T01:13:26.192Z,8.76
2022-11-07T01:13:38.195Z,8.76
2022-11-07T01:13:50.672Z,8.76
2022-11-07T01:14:03.458Z,8.75
2022-11-07T01:14:15.153Z,8.76
2022-11-07T01:14:28.384Z,8.76
2022-11-07T01:14:39.223Z,8.75
2022-11-07T01:14:50.952Z,8.75
2022-11-07T01:15:01.705Z,8.75
2022-11-07T01:15:12.469Z,8.75
2022-11-07T01:15:23.242Z,8.76
2022-11-07T01:15:35.705Z,8.75
2022-11-07T01:15:46.452Z,8.75
2022-11-07T01:15:57.273Z,8.73
2022-11-07T01:16:08.062Z,8.75
2022-11-07T01:16:19.832Z,8.75
2022-11-07T01:16:31.595Z,8.75
2022-11-07T01:16:43.372Z,8.76
2022-11-07T01:16:54.153Z,8.75
2022-11-07T01:17:05.883Z,8.76
2022-11-07T01:17:17.637Z,8.76
2022-11-07T01:17:28.403Z,8.75
2022-11-07T01:17:40.887Z,8.76
2022-11-07T01:17:51.624Z,8.76
2022-11-07T01:18:02.404Z,8.75
2022-11-07T01:18:13.176Z,8.75
2022-11-07T01:18:23.955Z,8.76
2022-11-07T01:18:37.184Z,8.76
2022-11-07T01:18:47.964Z,8.76
2022-11-07T01:18:58.771Z,8.76
2022-11-07T01:19:10.503Z,8.76
2022-11-07T01:19:22.255Z,8.76
2022-11-07T01:19:34.504Z,8.76
2022-11-07T01:19:46.235Z,8.78
2022-11-07T01:19:57.069Z,8.76
2022-11-07T01:20:07.783Z,8.76
2022-11-07T01:20:18.576Z,8.76
2022-11-07T01:20:29.283Z,8.76
2022-11-07T01:20:40.072Z,8.76
2022-11-07T01:20:51.813Z,8.76
2022-11-07T01:21:04.064Z,8.76
2022-11-07T01:21:17.014Z,8.78
2022-11-07T01:21:28.763Z,8.78
2022-11-07T01:21:41.235Z,8.79
2022-11-07T01:21:53.025Z,8.79
2022-11-07T01:22:04.794Z,8.78
2022-11-07T01:22:16.576Z,8.79
2022-11-07T01:22:28.381Z,8.78
2022-11-07T01:22:40.092Z,8.78
2022-11-07T01:22:51.794Z,8.79
2022-11-07T01:23:04.034Z,8.79
2022-11-07T01:23:14.949Z,8.78
2022-11-07T01:23:27.603Z,8.79
2022-11-07T01:23:38.417Z,8.79
2022-11-07T01:23:50.895Z,8.81
2022-11-07T01:24:03.116Z,8.79
2022-11-07T01:24:13.935Z,8.78
2022-11-07T01:24:27.213Z,8.79
2022-11-07T01:24:38.945Z,8.79
2022-11-07T01:24:49.755Z,8.79
2022-11-07T01:25:01.455Z,8.78
2022-11-07T01:25:13.265Z,8.79
2022-11-07T01:25:24.075Z,8.79
2022-11-07T01:25:35.863Z,8.79
2022-11-07T01:25:47.584Z,8.78
2022-11-07T01:26:00.022Z,8.78
2022-11-07T01:26:13.007Z,8.78
2022-11-07T01:26:23.798Z,8.76
2022-11-07T01:26:35.546Z,8.76
2022-11-07T01:26:48.525Z,8.76
2022-11-07T01:26:59.295Z,8.78
2022-11-07T01:27:12.516Z,8.76
2022-11-07T01:27:26.275Z,8.76
2022-11-07T01:27:38.525Z,8.76
2022-11-07T01:27:49.317Z,8.76
2022-11-07T01:28:01.809Z,8.76
2022-11-07T01:28:12.643Z,8.76
2022-11-07T01:28:26.270Z,8.76
2022-11-07T01:28:37.105Z,8.76
2022-11-07T01:28:48.885Z,8.76
2022-11-07T01:29:00.636Z,8.75
2022-11-07T01:29:13.846Z,8.76
2022-11-07T01:29:24.638Z,8.75
2022-11-07T01:29:35.366Z,8.75
2022-11-07T01:29:46.126Z,8.76
2022-11-07T01:29:57.846Z,8.76
2022-11-07T01:30:08.645Z,8.76
2022-11-07T01:30:21.107Z,8.76
2022-11-07T01:30:31.885Z,8.75
2022-11-07T01:30:43.667Z,8.75
2022-11-07T01:30:55.396Z,8.75
2022-11-07T01:31:07.896Z,8.75
2022-11-07T01:31:19.636Z,8.76
2022-11-07T01:31:31.445Z,8.75
2022-11-07T01:31:43.864Z,8.76
2022-11-07T01:31:55.861Z,8.78
2022-11-07T01:32:07.913Z,8.75
2022-11-07T01:32:20.336Z,8.75
2022-11-07T01:32:32.856Z,8.75
2022-11-07T01:32:44.712Z,8.76
2022-11-07T01:32:57.247Z,8.76
2022-11-07T01:33:08.976Z,8.76
2022-11-07T01:33:19.726Z,8.76
2022-11-07T01:33:30.553Z,8.76
2022-11-07T01:33:43.026Z,8.78
2022-11-07T01:33:53.889Z,8.79
2022-11-07T01:34:05.656Z,8.79
2022-11-07T01:34:16.476Z,8.79
2022-11-07T01:34:27.281Z,8.81
2022-11-07T01:34:40.527Z,8.79
2022-11-07T01:34:53.007Z,8.81
2022-11-07T01:35:04.747Z,8.83
2022-11-07T01:35:18.489Z,8.83
2022-11-07T01:35:30.967Z,8.84
2022-11-07T01:35:42.709Z,8.84
2022-11-07T01:35:53.497Z,8.84
2022-11-07T01:36:06.246Z,8.84
2022-11-07T01:36:17.198Z,8.86
2022-11-07T01:36:27.994Z,8.86
2022-11-07T01:36:39.708Z,8.86
2022-11-07T01:36:50.488Z,8.87
2022-11-07T01:37:02.211Z,8.86
2022-11-07T01:37:12.958Z,8.86
2022-11-07T01:37:25.008Z,8.86
2022-11-07T01:37:36.739Z,8.86
2022-11-07T01:37:49.948Z,8.86
2022-11-07T01:38:02.419Z,8.87
2022-11-07T01:38:13.190Z,8.87
2022-11-07T01:38:23.973Z,8.87
2022-11-07T01:38:35.825Z,8.87
2022-11-07T01:38:46.679Z,8.86
2022-11-07T01:38:57.478Z,8.87
2022-11-07T01:39:08.287Z,8.87
2022-11-07T01:39:19.019Z,8.88
2022-11-07T01:39:30.770Z,8.87
2022-11-07T01:39:42.478Z,8.87
2022-11-07T01:39:54.238Z,8.87
2022-11-07T01:40:04.997Z,8.88
2022-11-07T01:40:15.778Z,8.87
2022-11-07T01:40:26.578Z,8.87
2022-11-07T01:40:38.300Z,8.88
2022-11-07T01:40:49.101Z,8.88
2022-11-07T01:41:00.829Z,8.87
2022-11-07T01:41:12.549Z,8.88
2022-11-07T01:41:25.311Z,8.88
2022-11-07T01:41:39.019Z,8.87
2022-11-07T01:41:49.868Z,8.88
2022-11-07T01:42:01.611Z,8.88
2022-11-07T01:42:14.099Z,8.88
2022-11-07T01:42:24.838Z,8.88
2022-11-07T01:42:37.360Z,8.88
2022-11-07T01:42:49.619Z,8.88
2022-11-07T01:43:00.449Z,8.88
2022-11-07T01:43:12.848Z,8.88
2022-11-07T01:43:25.389Z,8.88
2022-11-07T01:43:36.310Z,8.88
2022-11-07T01:43:48.029Z,8.88
2022-11-07T01:44:00.509Z,8.88
2022-11-07T01:44:12.251Z,8.88
2022-11-07T01:44:23.019Z,8.88
2022-11-07T01:44:35.499Z,8.88
2022-11-07T01:44:46.287Z,8.87
2022-11-07T01:44:59.069Z,8.87
2022-11-07T01:45:10.799Z,8.88
2022-11-07T01:45:23.279Z,8.88
2022-11-07T01:45:35.109Z,8.88
2022-11-07T01:45:47.309Z,8.88
2022-11-07T01:45:58.080Z,8.88
2022-11-07T01:46:08.866Z,8.90
2022-11-07T01:46:20.906Z,8.90
2022-11-07T01:46:32.619Z,8.90
2022-11-07T01:46:45.550Z,8.88
2022-11-07T01:46:57.334Z,8.88
2022-11-07T01:47:09.063Z,8.90
2022-11-07T01:47:21.777Z,8.90
2022-11-07T01:47:34.618Z,8.90
2022-11-07T01:47:45.409Z,8.90
2022-11-07T01:47:56.177Z,8.90
2022-11-07T01:48:09.893Z,8.90
2022-11-07T01:48:21.651Z,8.90
2022-11-07T01:48:33.412Z,8.90
2022-11-07T01:48:44.168Z,8.90
2022-11-07T01:48:56.157Z,8.90
2022-11-07T01:49:08.593Z,8.88
2022-11-07T01:49:19.381Z,8.90
2022-11-07T01:49:31.150Z,8.88
2022-11-07T01:49:42.914Z,8.91
2022-11-07T01:49:53.689Z,8.90
2022-11-07T01:50:05.514Z,8.90
2022-11-07T01:50:16.230Z,8.90
2022-11-07T01:50:28.691Z,8.90
2022-11-07T01:50:39.441Z,8.88
2022-11-07T01:50:51.249Z,8.91
2022-11-07T01:51:02.051Z,8.90
2022-11-07T01:51:14.322Z,8.91
2022-11-07T01:51:26.862Z,8.90
2022-11-07T01:51:38.641Z,8.93
2022-11-07T01:51:50.429Z,8.91
2022-11-07T01:52:02.182Z,8.90
2022-11-07T01:52:12.961Z,8.94
2022-11-07T01:52:23.761Z,8.91
2022-11-07T01:52:36.991Z,8.93
2022-11-07T01:52:48.748Z,8.94
2022-11-07T01:53:01.962Z,8.93
2022-11-07T01:53:14.724Z,8.94
2022-11-07T01:53:29.152Z,8.93
2022-11-07T01:53:42.394Z,8.93
2022-11-07T01:53:54.388Z,8.93
2022-11-07T01:54:05.235Z,8.93
2022-11-07T01:54:16.034Z,8.94
2022-11-07T01:54:26.794Z,8.94
2022-11-07T01:54:37.822Z,8.94
2022-11-07T01:54:48.595Z,8.93
2022-11-07T01:55:00.321Z,8.93
2022-11-07T01:55:12.590Z,8.94
2022-11-07T01:55:25.252Z,8.94
2022-11-07T01:55:37.240Z,8.94
2022-11-07T01:55:48.992Z,8.94
2022-11-07T01:56:01.775Z,8.93
2022-11-07T01:56:15.603Z,8.94
2022-11-07T01:56:28.070Z,8.94
2022-11-07T01:56:40.597Z,8.93
2022-11-07T01:56:53.072Z,8.93
2022-11-07T01:57:03.855Z,8.94
2022-11-07T01:57:14.614Z,8.94
2022-11-07T01:57:25.472Z,8.94
2022-11-07T01:57:36.283Z,8.94
2022-11-07T01:57:47.033Z,8.91
2022-11-07T01:57:59.573Z,8.94
2022-11-07T01:58:12.792Z,8.93
2022-11-07T01:58:23.594Z,8.94
2022-11-07T01:58:35.299Z,8.94
2022-11-07T01:58:46.992Z,8.94
2022-11-07T01:58:59.443Z,8.94
2022-11-07T01:59:11.183Z,8.93
2022-11-07T01:59:23.445Z,8.96
2022-11-07T01:59:35.158Z,8.94
2022-11-07T01:59:47.641Z,8.94
2022-11-07T01:59:59.392Z,8.94
2022-11-07T02:00:10.134Z,8.96
2022-11-07T02:00:20.891Z,8.96
2022-11-07T02:00:32.611Z,8.96
2022-11-07T02:00:43.400Z,8.94
2022-11-07T02:00:54.317Z,8.96
2022-11-07T02:01:06.074Z,8.96
2022-11-07T02:01:17.175Z,8.96
2022-11-07T02:01:28.051Z,8.96
2022-11-07T02:01:40.830Z,8.96
2022-11-07T02:01:51.967Z,8.96
2022-11-07T02:02:04.057Z,8.97
2022-11-07T02:02:15.973Z,8.96
2022-11-07T02:02:28.537Z,8.96
2022-11-07T02:02:41.206Z,8.96
2022-11-07T02:02:53.213Z,8.96
2022-11-07T02:03:05.353Z,8.96
2022-11-07T02:03:18.436Z,8.97
2022-11-07T02:03:30.685Z,8.96
2022-11-07T02:03:43.217Z,8.97
2022-11-07T02:03:53.995Z,8.96
2022-11-07T02:04:06.547Z,8.97
2022-11-07T02:04:19.131Z,8.97
2022-11-07T02:04:30.093Z,8.96
2022-11-07T02:04:43.785Z,8.96
2022-11-07T02:04:55.504Z,8.97
2022-11-07T02:05:06.266Z,8.96
2022-11-07T02:05:19.474Z,8.97
2022-11-07T02:05:31.256Z,8.96
2022-11-07T02:05:44.403Z,8.96
2022-11-07T02:05:56.134Z,8.96
2022-11-07T02:06:07.916Z,8.96
2022-11-07T02:06:19.693Z,8.96
2022-11-07T02:06:32.484Z,8.94
2022-11-07T02:06:44.725Z,8.94
2022-11-07T02:06:58.997Z,8.96
2022-11-07T02:07:11.477Z,8.97
2022-11-07T02:07:23.685Z,8.94
2022-11-07T02:07:35.975Z,8.97
2022-11-07T02:07:47.725Z,8.96
2022-11-07T02:08:00.176Z,8.96
2022-11-07T02:08:12.915Z,8.96
2022-11-07T02:08:25.355Z,8.96
2022-11-07T02:08:36.147Z,8.96
2022-11-07T02:08:48.345Z,8.96
2022-11-07T02:09:01.333Z,8.94
2022-11-07T02:09:12.086Z,8.94
2022-11-07T02:09:24.527Z,8.94
2022-11-07T02:09:37.005Z,8.96
2022-11-07T02:09:48.727Z,8.94
2022-11-07T02:10:00.985Z,8.96
2022-11-07T02:10:13.240Z,8.96
2022-11-07T02:10:25.807Z,8.94
2022-11-07T02:10:36.568Z,8.96
2022-11-07T02:10:49.008Z,8.94
2022-11-07T02:10:59.887Z,8.96
2022-11-07T02:11:12.405Z,8.94
2022-11-07T02:11:24.923Z,8.94
2022-11-07T02:11:36.735Z,8.94
2022-11-07T02:11:49.176Z,8.96
2022-11-07T02:12:01.387Z,8.96
2022-11-07T02:12:12.217Z,8.96
2022-11-07T02:12:22.984Z,8.96
2022-11-07T02:12:36.127Z,8.96
2022-11-07T02:12:47.925Z,8.97
2022-11-07T02:12:58.753Z,8.97
2022-11-07T02:13:11.398Z,8.96
2022-11-07T02:13:24.578Z,8.97
2022-11-07T02:13:36.346Z,8.96
2022-11-07T02:13:47.160Z,8.96
2022-11-07T02:13:59.666Z,8.97
2022-11-07T02:14:12.147Z,8.97
2022-11-07T02:14:25.108Z,8.97
2022-11-07T02:14:36.846Z,8.96
2022-11-07T02:14:47.627Z,8.97
2022-11-07T02:14:59.388Z,8.97
2022-11-07T02:15:11.170Z,8.97
2022-11-07T02:15:23.737Z,8.96
2022-11-07T02:15:34.517Z,8.97
2022-11-07T02:15:45.298Z,8.96
2022-11-07T02:15:57.537Z,8.96
2022-11-07T02:16:10.036Z,8.97
2022-11-07T02:16:21.757Z,8.96
2022-11-07T02:16:33.749Z,8.96
2022-11-07T02:16:44.658Z,8.96
2022-11-07T02:16:57.398Z,8.96
2022-11-07T02:17:09.907Z,8.96
2022-11-07T02:17:23.053Z,8.96
2022-11-07T02:17:34.941Z,8.97
2022-11-07T02:17:46.678Z,8.96
2022-11-07T02:17:58.465Z,8.96
2022-11-07T02:18:10.209Z,8.94
2022-11-07T02:18:21.988Z,8.96
2022-11-07T02:18:33.698Z,8.96
2022-11-07T02:18:45.431Z,8.96
2022-11-07T02:18:57.138Z,8.96
2022-11-07T02:19:09.877Z,8.94
2022-11-07T02:19:23.608Z,8.96
2022-11-07T02:19:35.346Z,8.97
2022-11-07T02:19:46.077Z,8.96
2022-11-07T02:19:57.798Z,8.96
2022-11-07T02:20:09.567Z,8.96
2022-11-07T02:20:20.351Z,8.96
2022-11-07T02:20:32.074Z,8.96
2022-11-07T02:20:42.862Z,8.96
2022-11-07T02:20:55.311Z,8.97
2022-11-07T02:21:07.758Z,8.97
2022-11-07T02:21:18.536Z,8.97
2022-11-07T02:21:30.300Z,8.96
2022-11-07T02:21:42.064Z,8.97
2022-11-07T02:21:53.831Z,8.97
2022-11-07T02:22:04.620Z,8.96
2022-11-07T02:22:15.380Z,8.97
2022-11-07T02:22:28.119Z,8.97
2022-11-07T02:22:41.275Z,8.99
2022-11-07T02:22:53.017Z,8.97
2022-11-07T02:23:05.458Z,8.97
2022-11-07T02:23:16.784Z,8.97
2022-11-07T02:23:28.888Z,8.99
2022-11-07T02:23:39.672Z,8.97
2022-11-07T02:23:52.152Z,8.97
2022-11-07T02:24:04.372Z,8.99
2022-11-07T02:24:15.251Z,8.99
2022-11-07T02:24:27.249Z,8.97
2022-11-07T02:24:39.275Z,8.99
2022-11-07T02:24:51.758Z,8.99
2022-11-07T02:25:03.557Z,9.01
2022-11-07T02:25:14.311Z,8.99
2022-11-07T02:25:25.109Z,8.99
2022-11-07T02:25:35.913Z,8.97
2022-11-07T02:25:48.401Z,8.99
2022-11-07T02:26:00.149Z,8.99
2022-11-07T02:26:10.939Z,9.01
2022-11-07T02:26:24.180Z,8.99
2022-11-07T02:26:36.489Z,8.99
2022-11-07T02:26:47.240Z,8.99
2022-11-07T02:26:57.999Z,8.99
2022-11-07T02:27:09.748Z,8.99
2022-11-07T02:27:20.538Z,9.01
2022-11-07T02:27:32.294Z,9.01
2022-11-07T02:27:44.849Z,9.01
2022-11-07T02:27:56.676Z,8.99
2022-11-07T02:28:08.392Z,9.01
2022-11-07T02:28:19.994Z,9.01
2022-11-07T02:28:30.781Z,8.99
2022-11-07T02:28:42.541Z,9.01
2022-11-07T02:28:53.590Z,9.01
2022-11-07T02:29:05.820Z,9.01
2022-11-07T02:29:16.612Z,9.01
2022-11-07T02:29:28.889Z,9.01
2022-11-07T02:29:41.747Z,9.01
2022-11-07T02:29:54.461Z,9.02
2022-11-07T02:30:06.210Z,9.01
2022-11-07T02:30:16.986Z,9.02
2022-11-07T02:30:29.421Z,9.02
2022-11-07T02:30:41.900Z,9.01
2022-11-07T02:30:53.661Z,9.01
2022-11-07T02:31:06.913Z,9.01
2022-11-07T02:31:17.713Z,9.01
2022-11-07T02:31:29.962Z,9.01
2022-11-07T02:31:40.733Z,9.02
2022-11-07T02:31:52.971Z,9.02
2022-11-07T02:32:06.193Z,9.02
2022-11-07T02:32:16.951Z,9.02
2022-11-07T02:32:28.752Z,9.04
2022-11-07T02:32:40.746Z,9.04
2022-11-07T02:32:51.571Z,9.04
2022-11-07T02:33:04.052Z,9.05
2022-11-07T02:33:16.530Z,9.04
2022-11-07T02:33:27.490Z,9.05
2022-11-07T02:33:38.240Z,9.05
2022-11-07T02:33:50.742Z,9.05
2022-11-07T02:34:02.490Z,9.05
2022-11-07T02:34:16.711Z,9.05
2022-11-07T02:34:27.521Z,9.06
2022-11-07T02:34:40.774Z,9.05
2022-11-07T02:34:51.540Z,9.06
2022-11-07T02:35:02.311Z,9.06
2022-11-07T02:35:15.041Z,9.05
2022-11-07T02:35:26.835Z,9.05
2022-11-07T02:35:37.571Z,9.06
2022-11-07T02:35:48.353Z,9.06
2022-11-07T02:35:59.142Z,9.06
2022-11-07T02:36:10.174Z,9.05
2022-11-07T02:36:22.551Z,9.06
2022-11-07T02:36:35.743Z,9.06
2022-11-07T02:36:48.272Z,9.05
2022-11-07T02:37:01.523Z,9.06